sensor_id;sensor_type;location;lat;lon;timestamp;P1;durP1;ratioP1;P2;durP2;ratioP2
17794;SDS011;9021;50.882;4.326;2023-04-24T00:00:10;22.15;;;11.63;;
17794;SDS011;9021;50.882;4.326;2023-04-24T00:02:39;13.68;;;10.68;;
17794;SDS011;9021;50.882;4.326;2023-04-24T00:05:09;19.83;;;11.00;;
17794;SDS011;9021;50.882;4.326;2023-04-24T00:07:36;19.45;;;11.13;;
17794;SDS011;9021;50.882;4.326;2023-04-24T00:10:02;21.13;;;11.75;;
17794;SDS011;9021;50.882;4.326;2023-04-24T00:12:28;20.70;;;11.38;;
17794;SDS011;9021;50.882;4.326;2023-04-24T00:14:54;13.80;;;10.20;;
17794;SDS011;9021;50.882;4.326;2023-04-24T00:17:20;17.95;;;11.75;;
17794;SDS011;9021;50.882;4.326;2023-04-24T00:22:23;20.25;;;11.57;;
17794;SDS011;9021;50.882;4.326;2023-04-24T00:24:52;16.65;;;11.20;;
17794;SDS011;9021;50.882;4.326;2023-04-24T00:27:18;16.15;;;11.05;;
17794;SDS011;9021;50.882;4.326;2023-04-24T00:29:44;17.90;;;10.70;;
17794;SDS011;9021;50.882;4.326;2023-04-24T00:32:10;19.77;;;11.38;;
17794;SDS011;9021;50.882;4.326;2023-04-24T00:34:36;14.10;;;11.18;;
17794;SDS011;9021;50.882;4.326;2023-04-24T00:37:01;18.65;;;11.50;;
17794;SDS011;9021;50.882;4.326;2023-04-24T00:39:27;19.67;;;12.00;;
17794;SDS011;9021;50.882;4.326;2023-04-24T00:41:53;17.08;;;11.25;;
17794;SDS011;9021;50.882;4.326;2023-04-24T00:44:20;17.02;;;11.55;;
17794;SDS011;9021;50.882;4.326;2023-04-24T00:46:46;13.80;;;11.48;;
17794;SDS011;9021;50.882;4.326;2023-04-24T00:49:16;18.50;;;11.90;;
17794;SDS011;9021;50.882;4.326;2023-04-24T00:51:43;19.08;;;11.82;;
17794;SDS011;9021;50.882;4.326;2023-04-24T00:54:11;19.17;;;12.13;;
17794;SDS011;9021;50.882;4.326;2023-04-24T00:56:37;19.55;;;11.68;;
17794;SDS011;9021;50.882;4.326;2023-04-24T00:59:03;22.70;;;12.90;;
17794;SDS011;9021;50.882;4.326;2023-04-24T01:01:29;20.05;;;12.25;;
17794;SDS011;9021;50.882;4.326;2023-04-24T01:06:22;16.90;;;12.33;;
17794;SDS011;9021;50.882;4.326;2023-04-24T01:08:56;19.92;;;12.00;;
17794;SDS011;9021;50.882;4.326;2023-04-24T01:11:23;18.50;;;12.07;;
17794;SDS011;9021;50.882;4.326;2023-04-24T01:13:50;18.98;;;12.20;;
17794;SDS011;9021;50.882;4.326;2023-04-24T01:16:16;20.48;;;12.63;;
17794;SDS011;9021;50.882;4.326;2023-04-24T01:18:44;20.30;;;13.13;;
17794;SDS011;9021;50.882;4.326;2023-04-24T01:23:38;20.83;;;13.77;;
17794;SDS011;9021;50.882;4.326;2023-04-24T01:26:03;17.25;;;13.02;;
17794;SDS011;9021;50.882;4.326;2023-04-24T01:30:55;19.70;;;12.80;;
17794;SDS011;9021;50.882;4.326;2023-04-24T01:33:21;20.77;;;12.27;;
17794;SDS011;9021;50.882;4.326;2023-04-24T01:35:47;16.77;;;11.35;;
17794;SDS011;9021;50.882;4.326;2023-04-24T01:38:13;14.52;;;11.13;;
17794;SDS011;9021;50.882;4.326;2023-04-24T01:40:40;17.33;;;11.00;;
17794;SDS011;9021;50.882;4.326;2023-04-24T01:43:05;17.27;;;11.60;;
17794;SDS011;9021;50.882;4.326;2023-04-24T01:45:31;16.52;;;10.27;;
17794;SDS011;9021;50.882;4.326;2023-04-24T01:47:57;13.90;;;9.60;;
17794;SDS011;9021;50.882;4.326;2023-04-24T01:50:23;11.93;;;9.50;;
17794;SDS011;9021;50.882;4.326;2023-04-24T01:52:49;13.13;;;9.23;;
17794;SDS011;9021;50.882;4.326;2023-04-24T01:55:16;14.95;;;9.50;;
17794;SDS011;9021;50.882;4.326;2023-04-24T01:57:42;15.00;;;8.80;;
17794;SDS011;9021;50.882;4.326;2023-04-24T02:00:07;14.35;;;9.18;;
17794;SDS011;9021;50.882;4.326;2023-04-24T02:02:33;15.85;;;9.57;;
17794;SDS011;9021;50.882;4.326;2023-04-24T02:04:59;14.02;;;9.70;;
17794;SDS011;9021;50.882;4.326;2023-04-24T02:07:25;12.57;;;9.18;;
17794;SDS011;9021;50.882;4.326;2023-04-24T02:09:51;16.58;;;9.45;;
17794;SDS011;9021;50.882;4.326;2023-04-24T02:12:17;14.18;;;10.30;;
17794;SDS011;9021;50.882;4.326;2023-04-24T02:14:43;15.20;;;9.70;;
17794;SDS011;9021;50.882;4.326;2023-04-24T02:19:37;13.80;;;9.75;;
17794;SDS011;9021;50.882;4.326;2023-04-24T02:24:28;12.32;;;9.38;;
17794;SDS011;9021;50.882;4.326;2023-04-24T02:26:54;16.05;;;10.80;;
17794;SDS011;9021;50.882;4.326;2023-04-24T02:31:46;16.08;;;9.98;;
17794;SDS011;9021;50.882;4.326;2023-04-24T02:34:12;12.27;;;9.63;;
17794;SDS011;9021;50.882;4.326;2023-04-24T02:36:37;12.43;;;9.15;;
17794;SDS011;9021;50.882;4.326;2023-04-24T02:39:05;15.85;;;10.25;;
17794;SDS011;9021;50.882;4.326;2023-04-24T02:41:31;15.05;;;10.00;;
17794;SDS011;9021;50.882;4.326;2023-04-24T02:43:57;14.90;;;10.13;;
17794;SDS011;9021;50.882;4.326;2023-04-24T02:46:24;14.23;;;10.02;;
17794;SDS011;9021;50.882;4.326;2023-04-24T02:48:50;16.70;;;9.68;;
17794;SDS011;9021;50.882;4.326;2023-04-24T02:51:15;13.73;;;9.88;;
17794;SDS011;9021;50.882;4.326;2023-04-24T02:53:41;14.23;;;10.15;;
17794;SDS011;9021;50.882;4.326;2023-04-24T02:56:07;16.92;;;10.27;;
17794;SDS011;9021;50.882;4.326;2023-04-24T02:58:33;13.93;;;9.95;;
17794;SDS011;9021;50.882;4.326;2023-04-24T03:00:58;16.80;;;10.85;;
17794;SDS011;9021;50.882;4.326;2023-04-24T03:03:25;14.88;;;10.43;;
17794;SDS011;9021;50.882;4.326;2023-04-24T03:05:51;13.10;;;10.93;;
17794;SDS011;9021;50.882;4.326;2023-04-24T03:08:17;14.90;;;10.32;;
17794;SDS011;9021;50.882;4.326;2023-04-24T03:10:43;13.70;;;9.75;;
17794;SDS011;9021;50.882;4.326;2023-04-24T03:13:09;13.60;;;8.98;;
17794;SDS011;9021;50.882;4.326;2023-04-24T03:15:34;16.50;;;9.70;;
17794;SDS011;9021;50.882;4.326;2023-04-24T03:18:00;13.75;;;9.13;;
17794;SDS011;9021;50.882;4.326;2023-04-24T03:20:27;12.85;;;9.13;;
17794;SDS011;9021;50.882;4.326;2023-04-24T03:22:53;17.95;;;9.52;;
17794;SDS011;9021;50.882;4.326;2023-04-24T03:27:45;12.55;;;8.55;;
17794;SDS011;9021;50.882;4.326;2023-04-24T03:30:11;14.38;;;9.77;;
17794;SDS011;9021;50.882;4.326;2023-04-24T03:35:04;14.70;;;9.82;;
17794;SDS011;9021;50.882;4.326;2023-04-24T03:37:32;12.13;;;9.32;;
17794;SDS011;9021;50.882;4.326;2023-04-24T03:39:57;10.70;;;8.30;;
17794;SDS011;9021;50.882;4.326;2023-04-24T03:42:23;11.43;;;8.70;;
17794;SDS011;9021;50.882;4.326;2023-04-24T03:44:49;10.88;;;8.80;;
17794;SDS011;9021;50.882;4.326;2023-04-24T03:47:15;12.82;;;8.15;;
17794;SDS011;9021;50.882;4.326;2023-04-24T03:49:41;8.82;;;7.93;;
17794;SDS011;9021;50.882;4.326;2023-04-24T03:52:06;8.80;;;7.90;;
17794;SDS011;9021;50.882;4.326;2023-04-24T03:54:32;8.75;;;7.85;;
17794;SDS011;9021;50.882;4.326;2023-04-24T03:56:58;8.95;;;8.05;;
17794;SDS011;9021;50.882;4.326;2023-04-24T03:59:23;9.02;;;8.13;;
17794;SDS011;9021;50.882;4.326;2023-04-24T04:01:49;11.57;;;8.68;;
17794;SDS011;9021;50.882;4.326;2023-04-24T04:04:15;9.27;;;7.68;;
17794;SDS011;9021;50.882;4.326;2023-04-24T04:06:41;10.30;;;7.22;;
17794;SDS011;9021;50.882;4.326;2023-04-24T04:11:33;9.05;;;7.05;;
17794;SDS011;9021;50.882;4.326;2023-04-24T04:14:00;8.35;;;6.70;;
17794;SDS011;9021;50.882;4.326;2023-04-24T04:16:26;9.20;;;7.30;;
17794;SDS011;9021;50.882;4.326;2023-04-24T04:18:51;9.48;;;7.00;;
17794;SDS011;9021;50.882;4.326;2023-04-24T04:21:17;7.53;;;6.80;;
17794;SDS011;9021;50.882;4.326;2023-04-24T04:23:43;10.68;;;6.75;;
17794;SDS011;9021;50.882;4.326;2023-04-24T04:26:09;8.65;;;6.75;;
17794;SDS011;9021;50.882;4.326;2023-04-24T04:28:36;10.40;;;7.00;;
17794;SDS011;9021;50.882;4.326;2023-04-24T04:31:02;11.85;;;6.90;;
17794;SDS011;9021;50.882;4.326;2023-04-24T04:33:28;8.13;;;6.03;;
17794;SDS011;9021;50.882;4.326;2023-04-24T04:35:54;9.75;;;6.13;;
17794;SDS011;9021;50.882;4.326;2023-04-24T04:38:21;10.18;;;5.90;;
17794;SDS011;9021;50.882;4.326;2023-04-24T04:40:48;7.93;;;6.30;;
17794;SDS011;9021;50.882;4.326;2023-04-24T04:43:13;8.10;;;6.13;;
17794;SDS011;9021;50.882;4.326;2023-04-24T04:48:07;10.38;;;6.95;;
17794;SDS011;9021;50.882;4.326;2023-04-24T04:52:59;10.43;;;7.47;;
17794;SDS011;9021;50.882;4.326;2023-04-24T04:55:25;11.32;;;8.43;;
17794;SDS011;9021;50.882;4.326;2023-04-24T04:57:51;11.82;;;7.75;;
17794;SDS011;9021;50.882;4.326;2023-04-24T05:00:17;11.80;;;8.60;;
17794;SDS011;9021;50.882;4.326;2023-04-24T05:02:44;11.65;;;9.07;;
17794;SDS011;9021;50.882;4.326;2023-04-24T05:05:10;16.48;;;11.15;;
17794;SDS011;9021;50.882;4.326;2023-04-24T05:07:36;14.93;;;10.55;;
17794;SDS011;9021;50.882;4.326;2023-04-24T05:10:02;13.60;;;10.15;;
17794;SDS011;9021;50.882;4.326;2023-04-24T05:14:54;15.25;;;10.25;;
17794;SDS011;9021;50.882;4.326;2023-04-24T05:17:19;20.55;;;11.30;;
17794;SDS011;9021;50.882;4.326;2023-04-24T05:19:45;14.25;;;11.43;;
17794;SDS011;9021;50.882;4.326;2023-04-24T05:22:11;15.13;;;10.40;;
17794;SDS011;9021;50.882;4.326;2023-04-24T05:24:37;15.77;;;11.02;;
17794;SDS011;9021;50.882;4.326;2023-04-24T05:27:03;19.33;;;12.45;;
17794;SDS011;9021;50.882;4.326;2023-04-24T05:29:32;16.95;;;11.65;;
17794;SDS011;9021;50.882;4.326;2023-04-24T05:34:25;16.40;;;10.68;;
17794;SDS011;9021;50.882;4.326;2023-04-24T05:36:51;14.95;;;11.27;;
17794;SDS011;9021;50.882;4.326;2023-04-24T05:41:43;15.85;;;11.25;;
17794;SDS011;9021;50.882;4.326;2023-04-24T05:46:34;16.67;;;10.98;;
17794;SDS011;9021;50.882;4.326;2023-04-24T05:49:00;15.15;;;12.25;;
17794;SDS011;9021;50.882;4.326;2023-04-24T05:51:26;18.60;;;11.52;;
17794;SDS011;9021;50.882;4.326;2023-04-24T05:53:52;16.05;;;11.95;;
17794;SDS011;9021;50.882;4.326;2023-04-24T05:56:18;16.80;;;12.30;;
17794;SDS011;9021;50.882;4.326;2023-04-24T05:58:45;20.20;;;12.88;;
17794;SDS011;9021;50.882;4.326;2023-04-24T06:01:11;18.67;;;11.88;;
17794;SDS011;9021;50.882;4.326;2023-04-24T06:03:39;22.35;;;12.68;;
17794;SDS011;9021;50.882;4.326;2023-04-24T06:06:05;19.23;;;12.27;;
17794;SDS011;9021;50.882;4.326;2023-04-24T06:08:32;17.80;;;12.40;;
17794;SDS011;9021;50.882;4.326;2023-04-24T06:10:57;16.58;;;11.77;;
17794;SDS011;9021;50.882;4.326;2023-04-24T06:13:23;15.60;;;12.00;;
17794;SDS011;9021;50.882;4.326;2023-04-24T06:15:49;18.33;;;11.75;;
17794;SDS011;9021;50.882;4.326;2023-04-24T06:18:16;18.70;;;12.10;;
17794;SDS011;9021;50.882;4.326;2023-04-24T06:23:08;17.92;;;12.55;;
17794;SDS011;9021;50.882;4.326;2023-04-24T06:27:59;20.95;;;12.57;;
17794;SDS011;9021;50.882;4.326;2023-04-24T06:30:26;19.05;;;13.15;;
17794;SDS011;9021;50.882;4.326;2023-04-24T06:32:53;20.13;;;13.77;;
17794;SDS011;9021;50.882;4.326;2023-04-24T06:35:18;22.33;;;15.15;;
17794;SDS011;9021;50.882;4.326;2023-04-24T06:40:10;28.08;;;14.15;;
17794;SDS011;9021;50.882;4.326;2023-04-24T06:42:36;23.33;;;14.27;;
17794;SDS011;9021;50.882;4.326;2023-04-24T06:45:02;27.80;;;15.15;;
17794;SDS011;9021;50.882;4.326;2023-04-24T06:47:28;21.00;;;13.63;;
17794;SDS011;9021;50.882;4.326;2023-04-24T06:52:20;24.65;;;15.05;;
17794;SDS011;9021;50.882;4.326;2023-04-24T06:54:46;23.25;;;14.80;;
17794;SDS011;9021;50.882;4.326;2023-04-24T06:57:12;26.58;;;15.00;;
17794;SDS011;9021;50.882;4.326;2023-04-24T07:02:03;26.27;;;14.38;;
17794;SDS011;9021;50.882;4.326;2023-04-24T07:04:30;20.75;;;14.43;;
17794;SDS011;9021;50.882;4.326;2023-04-24T07:09:23;24.33;;;15.38;;
17794;SDS011;9021;50.882;4.326;2023-04-24T07:11:50;29.08;;;14.80;;
17794;SDS011;9021;50.882;4.326;2023-04-24T07:14:19;21.50;;;14.30;;
17794;SDS011;9021;50.882;4.326;2023-04-24T07:16:45;20.83;;;14.43;;
17794;SDS011;9021;50.882;4.326;2023-04-24T07:21:40;19.17;;;13.43;;
17794;SDS011;9021;50.882;4.326;2023-04-24T07:24:06;20.02;;;11.60;;
17794;SDS011;9021;50.882;4.326;2023-04-24T07:26:39;20.33;;;12.05;;
17794;SDS011;9021;50.882;4.326;2023-04-24T07:29:05;16.92;;;11.68;;
17794;SDS011;9021;50.882;4.326;2023-04-24T07:31:31;18.38;;;10.48;;
17794;SDS011;9021;50.882;4.326;2023-04-24T07:33:57;22.65;;;10.10;;
17794;SDS011;9021;50.882;4.326;2023-04-24T07:36:23;12.50;;;8.88;;
17794;SDS011;9021;50.882;4.326;2023-04-24T07:38:50;16.77;;;9.90;;
17794;SDS011;9021;50.882;4.326;2023-04-24T07:41:17;15.23;;;7.60;;
17794;SDS011;9021;50.882;4.326;2023-04-24T07:43:42;12.48;;;6.57;;
17794;SDS011;9021;50.882;4.326;2023-04-24T07:46:09;10.68;;;6.93;;
17794;SDS011;9021;50.882;4.326;2023-04-24T07:48:35;14.63;;;7.75;;
17794;SDS011;9021;50.882;4.326;2023-04-24T07:51:01;12.30;;;7.63;;
17794;SDS011;9021;50.882;4.326;2023-04-24T07:53:27;17.83;;;8.25;;
17794;SDS011;9021;50.882;4.326;2023-04-24T07:55:53;16.33;;;9.20;;
17794;SDS011;9021;50.882;4.326;2023-04-24T07:58:20;16.23;;;9.55;;
17794;SDS011;9021;50.882;4.326;2023-04-24T08:00:46;15.88;;;9.80;;
17794;SDS011;9021;50.882;4.326;2023-04-24T08:03:12;18.15;;;10.40;;
17794;SDS011;9021;50.882;4.326;2023-04-24T08:05:38;17.02;;;9.15;;
17794;SDS011;9021;50.882;4.326;2023-04-24T08:08:04;18.98;;;9.05;;
17794;SDS011;9021;50.882;4.326;2023-04-24T08:10:29;15.90;;;8.63;;
17794;SDS011;9021;50.882;4.326;2023-04-24T08:12:55;15.07;;;7.82;;
17794;SDS011;9021;50.882;4.326;2023-04-24T08:15:21;16.58;;;7.65;;
17794;SDS011;9021;50.882;4.326;2023-04-24T08:17:47;12.57;;;7.20;;
17794;SDS011;9021;50.882;4.326;2023-04-24T08:20:13;14.73;;;7.70;;
17794;SDS011;9021;50.882;4.326;2023-04-24T08:22:41;13.38;;;7.25;;
17794;SDS011;9021;50.882;4.326;2023-04-24T08:25:08;16.92;;;7.07;;
17794;SDS011;9021;50.882;4.326;2023-04-24T08:27:34;11.30;;;6.22;;
17794;SDS011;9021;50.882;4.326;2023-04-24T08:30:01;16.75;;;7.18;;
17794;SDS011;9021;50.882;4.326;2023-04-24T08:32:28;14.88;;;6.22;;
17794;SDS011;9021;50.882;4.326;2023-04-24T08:34:54;14.88;;;6.32;;
17794;SDS011;9021;50.882;4.326;2023-04-24T08:37:21;15.02;;;5.80;;
17794;SDS011;9021;50.882;4.326;2023-04-24T08:39:48;14.82;;;6.10;;
17794;SDS011;9021;50.882;4.326;2023-04-24T08:42:14;18.95;;;6.32;;
17794;SDS011;9021;50.882;4.326;2023-04-24T08:44:41;13.23;;;5.50;;
17794;SDS011;9021;50.882;4.326;2023-04-24T08:47:08;13.20;;;5.15;;
17794;SDS011;9021;50.882;4.326;2023-04-24T08:49:34;17.08;;;6.45;;
17794;SDS011;9021;50.882;4.326;2023-04-24T08:52:01;8.80;;;4.55;;
17794;SDS011;9021;50.882;4.326;2023-04-24T08:56:53;9.93;;;4.10;;
17794;SDS011;9021;50.882;4.326;2023-04-24T08:59:31;8.57;;;3.97;;
17794;SDS011;9021;50.882;4.326;2023-04-24T09:01:58;10.48;;;4.45;;
17794;SDS011;9021;50.882;4.326;2023-04-24T09:04:24;12.75;;;4.25;;
17794;SDS011;9021;50.882;4.326;2023-04-24T09:06:55;10.48;;;3.97;;
17794;SDS011;9021;50.882;4.326;2023-04-24T09:09:22;7.38;;;3.88;;
17794;SDS011;9021;50.882;4.326;2023-04-24T09:11:49;8.10;;;3.75;;
17794;SDS011;9021;50.882;4.326;2023-04-24T09:14:16;10.27;;;3.55;;
17794;SDS011;9021;50.882;4.326;2023-04-24T09:16:42;8.93;;;3.85;;
17794;SDS011;9021;50.882;4.326;2023-04-24T09:19:08;9.65;;;3.45;;
17794;SDS011;9021;50.882;4.326;2023-04-24T09:21:34;11.10;;;3.72;;
17794;SDS011;9021;50.882;4.326;2023-04-24T09:24:01;8.18;;;3.10;;
17794;SDS011;9021;50.882;4.326;2023-04-24T09:26:31;7.32;;;2.97;;
17794;SDS011;9021;50.882;4.326;2023-04-24T09:28:59;10.40;;;2.92;;
17794;SDS011;9021;50.882;4.326;2023-04-24T09:31:26;11.38;;;3.92;;
17794;SDS011;9021;50.882;4.326;2023-04-24T09:34:11;9.45;;;3.30;;
17794;SDS011;9021;50.882;4.326;2023-04-24T09:37:00;13.60;;;3.45;;
17794;SDS011;9021;50.882;4.326;2023-04-24T09:39:28;7.55;;;3.75;;
17794;SDS011;9021;50.882;4.326;2023-04-24T09:41:55;5.93;;;3.08;;
17794;SDS011;9021;50.882;4.326;2023-04-24T09:44:26;8.38;;;3.13;;
17794;SDS011;9021;50.882;4.326;2023-04-24T09:46:54;15.48;;;4.00;;
17794;SDS011;9021;50.882;4.326;2023-04-24T09:49:25;11.27;;;3.25;;
17794;SDS011;9021;50.882;4.326;2023-04-24T09:52:05;9.38;;;3.45;;
17794;SDS011;9021;50.882;4.326;2023-04-24T09:54:36;14.85;;;2.80;;
17794;SDS011;9021;50.882;4.326;2023-04-24T09:57:02;8.63;;;3.10;;
17794;SDS011;9021;50.882;4.326;2023-04-24T09:59:31;8.25;;;3.17;;
17794;SDS011;9021;50.882;4.326;2023-04-24T10:01:57;7.28;;;2.78;;
17794;SDS011;9021;50.882;4.326;2023-04-24T10:04:24;7.10;;;2.53;;
17794;SDS011;9021;50.882;4.326;2023-04-24T10:06:52;9.70;;;2.83;;
17794;SDS011;9021;50.882;4.326;2023-04-24T10:09:21;6.90;;;2.60;;
17794;SDS011;9021;50.882;4.326;2023-04-24T10:11:49;9.65;;;3.50;;
17794;SDS011;9021;50.882;4.326;2023-04-24T10:14:17;5.45;;;2.55;;
17794;SDS011;9021;50.882;4.326;2023-04-24T10:16:44;8.18;;;2.97;;
17794;SDS011;9021;50.882;4.326;2023-04-24T10:19:16;5.70;;;2.90;;
17794;SDS011;9021;50.882;4.326;2023-04-24T10:21:51;8.70;;;2.80;;
17794;SDS011;9021;50.882;4.326;2023-04-24T10:24:17;5.18;;;2.80;;
17794;SDS011;9021;50.882;4.326;2023-04-24T10:26:47;11.43;;;3.40;;
17794;SDS011;9021;50.882;4.326;2023-04-24T10:29:15;7.15;;;3.22;;
17794;SDS011;9021;50.882;4.326;2023-04-24T10:31:47;6.90;;;3.00;;
17794;SDS011;9021;50.882;4.326;2023-04-24T10:34:13;7.25;;;2.95;;
17794;SDS011;9021;50.882;4.326;2023-04-24T10:36:42;7.68;;;2.83;;
17794;SDS011;9021;50.882;4.326;2023-04-24T10:39:13;6.18;;;2.92;;
17794;SDS011;9021;50.882;4.326;2023-04-24T10:41:40;9.00;;;2.70;;
17794;SDS011;9021;50.882;4.326;2023-04-24T10:44:12;5.90;;;2.55;;
17794;SDS011;9021;50.882;4.326;2023-04-24T10:46:43;7.10;;;3.60;;
17794;SDS011;9021;50.882;4.326;2023-04-24T10:49:10;6.78;;;3.05;;
17794;SDS011;9021;50.882;4.326;2023-04-24T10:51:49;4.60;;;2.60;;
17794;SDS011;9021;50.882;4.326;2023-04-24T10:54:29;6.88;;;3.10;;
17794;SDS011;9021;50.882;4.326;2023-04-24T10:59:44;8.15;;;3.45;;
17794;SDS011;9021;50.882;4.326;2023-04-24T11:04:39;7.07;;;3.42;;
17794;SDS011;9021;50.882;4.326;2023-04-24T11:07:04;7.40;;;3.15;;
17794;SDS011;9021;50.882;4.326;2023-04-24T11:09:31;9.82;;;3.40;;
17794;SDS011;9021;50.882;4.326;2023-04-24T11:12:04;8.60;;;3.42;;
17794;SDS011;9021;50.882;4.326;2023-04-24T11:17:36;9.02;;;3.10;;
17794;SDS011;9021;50.882;4.326;2023-04-24T11:20:07;9.77;;;3.00;;
17794;SDS011;9021;50.882;4.326;2023-04-24T11:22:36;5.18;;;3.25;;
17794;SDS011;9021;50.882;4.326;2023-04-24T11:25:05;5.65;;;2.92;;
17794;SDS011;9021;50.882;4.326;2023-04-24T11:27:34;6.72;;;3.38;;
17794;SDS011;9021;50.882;4.326;2023-04-24T11:30:04;6.53;;;2.97;;
17794;SDS011;9021;50.882;4.326;2023-04-24T11:35:05;5.43;;;3.38;;
17794;SDS011;9021;50.882;4.326;2023-04-24T11:37:37;9.13;;;3.40;;
17794;SDS011;9021;50.882;4.326;2023-04-24T11:40:05;7.95;;;2.90;;
17794;SDS011;9021;50.882;4.326;2023-04-24T11:42:33;8.00;;;3.10;;
17794;SDS011;9021;50.882;4.326;2023-04-24T11:45:10;7.93;;;3.22;;
17794;SDS011;9021;50.882;4.326;2023-04-24T11:47:37;6.70;;;3.63;;
17794;SDS011;9021;50.882;4.326;2023-04-24T11:50:05;6.30;;;3.08;;
17794;SDS011;9021;50.882;4.326;2023-04-24T11:52:33;6.90;;;3.55;;
17794;SDS011;9021;50.882;4.326;2023-04-24T11:55:02;8.77;;;4.40;;
17794;SDS011;9021;50.882;4.326;2023-04-24T11:57:28;9.55;;;4.25;;
17794;SDS011;9021;50.882;4.326;2023-04-24T11:59:59;7.45;;;3.70;;
17794;SDS011;9021;50.882;4.326;2023-04-24T12:02:26;7.97;;;3.70;;
17794;SDS011;9021;50.882;4.326;2023-04-24T12:07:18;6.78;;;3.65;;
17794;SDS011;9021;50.882;4.326;2023-04-24T12:09:45;5.65;;;2.92;;
17794;SDS011;9021;50.882;4.326;2023-04-24T12:12:23;6.25;;;3.00;;
17794;SDS011;9021;50.882;4.326;2023-04-24T12:14:54;5.22;;;3.03;;
17794;SDS011;9021;50.882;4.326;2023-04-24T12:17:31;5.25;;;2.75;;
17794;SDS011;9021;50.882;4.326;2023-04-24T12:20:01;6.55;;;3.13;;
17794;SDS011;9021;50.882;4.326;2023-04-24T12:22:42;5.03;;;2.60;;
17794;SDS011;9021;50.882;4.326;2023-04-24T12:25:09;3.92;;;2.42;;
17794;SDS011;9021;50.882;4.326;2023-04-24T12:27:36;4.70;;;2.60;;
17794;SDS011;9021;50.882;4.326;2023-04-24T12:30:03;4.03;;;2.30;;
17794;SDS011;9021;50.882;4.326;2023-04-24T12:32:30;6.88;;;3.00;;
17794;SDS011;9021;50.882;4.326;2023-04-24T12:37:23;5.50;;;2.35;;
17794;SDS011;9021;50.882;4.326;2023-04-24T12:40:03;6.95;;;2.47;;
17794;SDS011;9021;50.882;4.326;2023-04-24T12:42:30;6.07;;;2.85;;
17794;SDS011;9021;50.882;4.326;2023-04-24T12:44:57;3.50;;;2.35;;
17794;SDS011;9021;50.882;4.326;2023-04-24T12:47:24;5.05;;;2.25;;
17794;SDS011;9021;50.882;4.326;2023-04-24T12:49:50;3.58;;;2.33;;
17794;SDS011;9021;50.882;4.326;2023-04-24T12:52:17;4.18;;;2.40;;
17794;SDS011;9021;50.882;4.326;2023-04-24T12:54:45;5.97;;;2.28;;
17794;SDS011;9021;50.882;4.326;2023-04-24T12:57:11;10.82;;;2.45;;
17794;SDS011;9021;50.882;4.326;2023-04-24T12:59:36;5.38;;;2.47;;
17794;SDS011;9021;50.882;4.326;2023-04-24T13:02:04;8.90;;;2.60;;
17794;SDS011;9021;50.882;4.326;2023-04-24T13:04:30;8.40;;;3.20;;
17794;SDS011;9021;50.882;4.326;2023-04-24T13:06:55;6.00;;;2.42;;
17794;SDS011;9021;50.882;4.326;2023-04-24T13:09:21;9.20;;;2.75;;
17794;SDS011;9021;50.882;4.326;2023-04-24T13:11:47;4.25;;;2.35;;
17794;SDS011;9021;50.882;4.326;2023-04-24T13:14:12;6.20;;;2.80;;
17794;SDS011;9021;50.882;4.326;2023-04-24T13:16:38;5.00;;;2.20;;
17794;SDS011;9021;50.882;4.326;2023-04-24T13:19:03;4.57;;;2.25;;
17794;SDS011;9021;50.882;4.326;2023-04-24T13:21:29;7.32;;;2.03;;
17794;SDS011;9021;50.882;4.326;2023-04-24T13:23:55;4.38;;;1.90;;
17794;SDS011;9021;50.882;4.326;2023-04-24T13:26:21;3.80;;;2.20;;
17794;SDS011;9021;50.882;4.326;2023-04-24T13:28:46;4.60;;;1.73;;
17794;SDS011;9021;50.882;4.326;2023-04-24T13:31:12;4.03;;;2.13;;
17794;SDS011;9021;50.882;4.326;2023-04-24T13:36:05;3.70;;;1.80;;
17794;SDS011;9021;50.882;4.326;2023-04-24T13:38:31;4.88;;;1.60;;
17794;SDS011;9021;50.882;4.326;2023-04-24T13:40:57;3.55;;;1.60;;
17794;SDS011;9021;50.882;4.326;2023-04-24T13:43:22;2.67;;;1.40;;
17794;SDS011;9021;50.882;4.326;2023-04-24T13:45:48;3.08;;;1.55;;
17794;SDS011;9021;50.882;4.326;2023-04-24T13:48:14;3.92;;;1.67;;
17794;SDS011;9021;50.882;4.326;2023-04-24T13:50:40;5.03;;;1.55;;
17794;SDS011;9021;50.882;4.326;2023-04-24T13:53:07;3.22;;;1.30;;
17794;SDS011;9021;50.882;4.326;2023-04-24T13:55:35;2.97;;;1.45;;
17794;SDS011;9021;50.882;4.326;2023-04-24T13:58:01;4.15;;;1.20;;
17794;SDS011;9021;50.882;4.326;2023-04-24T14:00:27;3.03;;;1.17;;
17794;SDS011;9021;50.882;4.326;2023-04-24T14:05:19;6.78;;;1.35;;
17794;SDS011;9021;50.882;4.326;2023-04-24T14:07:46;2.20;;;1.10;;
17794;SDS011;9021;50.882;4.326;2023-04-24T14:10:11;8.68;;;3.03;;
17794;SDS011;9021;50.882;4.326;2023-04-24T14:12:37;6.18;;;1.70;;
17794;SDS011;9021;50.882;4.326;2023-04-24T14:15:03;3.47;;;1.50;;
17794;SDS011;9021;50.882;4.326;2023-04-24T14:17:30;6.03;;;1.67;;
17794;SDS011;9021;50.882;4.326;2023-04-24T14:19:56;5.95;;;1.52;;
17794;SDS011;9021;50.882;4.326;2023-04-24T14:22:22;4.28;;;1.40;;
17794;SDS011;9021;50.882;4.326;2023-04-24T14:24:53;4.32;;;1.67;;
17794;SDS011;9021;50.882;4.326;2023-04-24T14:27:19;2.97;;;1.20;;
17794;SDS011;9021;50.882;4.326;2023-04-24T14:29:45;6.47;;;1.50;;
17794;SDS011;9021;50.882;4.326;2023-04-24T14:32:11;5.47;;;1.55;;
17794;SDS011;9021;50.882;4.326;2023-04-24T14:34:39;4.57;;;1.88;;
17794;SDS011;9021;50.882;4.326;2023-04-24T14:37:05;6.25;;;1.70;;
17794;SDS011;9021;50.882;4.326;2023-04-24T14:39:31;4.55;;;1.40;;
17794;SDS011;9021;50.882;4.326;2023-04-24T14:41:57;4.53;;;2.33;;
17794;SDS011;9021;50.882;4.326;2023-04-24T14:44:25;4.60;;;1.52;;
17794;SDS011;9021;50.882;4.326;2023-04-24T14:47:01;3.92;;;1.30;;
17794;SDS011;9021;50.882;4.326;2023-04-24T14:49:27;6.18;;;1.45;;
17794;SDS011;9021;50.882;4.326;2023-04-24T14:52:04;4.47;;;1.58;;
17794;SDS011;9021;50.882;4.326;2023-04-24T14:54:32;7.75;;;1.58;;
17794;SDS011;9021;50.882;4.326;2023-04-24T14:56:58;4.68;;;1.40;;
17794;SDS011;9021;50.882;4.326;2023-04-24T14:59:24;5.65;;;1.40;;
17794;SDS011;9021;50.882;4.326;2023-04-24T15:02:02;7.72;;;1.63;;
17794;SDS011;9021;50.882;4.326;2023-04-24T15:04:28;3.45;;;1.17;;
17794;SDS011;9021;50.882;4.326;2023-04-24T15:06:57;3.05;;;1.10;;
17794;SDS011;9021;50.882;4.326;2023-04-24T15:09:23;6.65;;;1.17;;
17794;SDS011;9021;50.882;4.326;2023-04-24T15:11:49;5.82;;;1.00;;
17794;SDS011;9021;50.882;4.326;2023-04-24T15:14:16;4.68;;;1.00;;
17794;SDS011;9021;50.882;4.326;2023-04-24T15:16:42;3.75;;;1.08;;
17794;SDS011;9021;50.882;4.326;2023-04-24T15:19:08;3.15;;;1.13;;
17794;SDS011;9021;50.882;4.326;2023-04-24T15:21:35;4.22;;;1.00;;
17794;SDS011;9021;50.882;4.326;2023-04-24T15:24:01;3.40;;;1.00;;
17794;SDS011;9021;50.882;4.326;2023-04-24T15:26:27;5.82;;;1.40;;
17794;SDS011;9021;50.882;4.326;2023-04-24T15:28:53;2.58;;;1.20;;
17794;SDS011;9021;50.882;4.326;2023-04-24T15:31:19;2.85;;;1.10;;
17794;SDS011;9021;50.882;4.326;2023-04-24T15:33:45;2.63;;;0.88;;
17794;SDS011;9021;50.882;4.326;2023-04-24T15:36:10;2.88;;;1.05;;
17794;SDS011;9021;50.882;4.326;2023-04-24T15:38:37;2.85;;;1.05;;
17794;SDS011;9021;50.882;4.326;2023-04-24T15:41:02;3.45;;;1.42;;
17794;SDS011;9021;50.882;4.326;2023-04-24T15:43:28;3.45;;;1.15;;
17794;SDS011;9021;50.882;4.326;2023-04-24T15:45:56;3.45;;;1.00;;
17794;SDS011;9021;50.882;4.326;2023-04-24T15:50:47;3.00;;;1.40;;
17794;SDS011;9021;50.882;4.326;2023-04-24T15:53:13;5.30;;;1.08;;
17794;SDS011;9021;50.882;4.326;2023-04-24T15:55:45;5.35;;;1.60;;
17794;SDS011;9021;50.882;4.326;2023-04-24T16:00:37;5.22;;;1.02;;
17794;SDS011;9021;50.882;4.326;2023-04-24T16:03:03;7.63;;;1.40;;
17794;SDS011;9021;50.882;4.326;2023-04-24T16:05:29;3.80;;;1.20;;
17794;SDS011;9021;50.882;4.326;2023-04-24T16:07:55;3.50;;;1.20;;
17794;SDS011;9021;50.882;4.326;2023-04-24T16:10:20;5.22;;;1.30;;
17794;SDS011;9021;50.882;4.326;2023-04-24T16:12:46;2.30;;;1.02;;